createdAt,value
2022-11-20T00:00:36.019Z,6.8
2022-11-20T00:05:36.070Z,5.3
2022-11-20T00:10:36.024Z,5.3
2022-11-20T00:15:36.015Z,8.3
2022-11-20T00:20:35.983Z,8.1
2022-11-20T00:25:36.028Z,5.1
2022-11-20T00:30:36.017Z,5.7
2022-11-20T00:35:36.042Z,7.2
2022-11-20T00:40:36.038Z,7.2
2022-11-20T00:45:36.032Z,5.7
2022-11-20T00:50:36.016Z,5.2
2022-11-20T00:55:36.059Z,7.4
2022-11-20T01:00:36.011Z,7.5
2022-11-20T01:05:36.033Z,7.4
2022-11-20T01:10:36.031Z,7.4
2022-11-20T01:15:36.025Z,5.9
2022-11-20T01:20:36.032Z,6.3
2022-11-20T01:25:36.044Z,7.6
2022-11-20T01:30:36.023Z,9.2
2022-11-20T01:35:36.064Z,6.0
2022-11-20T01:40:36.018Z,6.0
2022-11-20T01:45:36.038Z,7.2
2022-11-20T01:50:36.048Z,5.3
2022-11-20T01:55:36.029Z,5.1
2022-11-20T02:00:36.015Z,7.4
2022-11-20T02:05:36.042Z,6.0
2022-11-20T02:10:36.031Z,6.0
2022-11-20T02:15:36.025Z,8.2
2022-11-20T02:20:36.031Z,5.7
2022-11-20T02:25:36.028Z,12.3
2022-11-20T02:30:36.048Z,6.8
2022-11-20T02:35:36.034Z,10.6
2022-11-20T02:40:36.038Z,10.6
2022-11-20T02:45:36.022Z,7.8
2022-11-20T02:50:36.047Z,4.3
2022-11-20T02:55:36.050Z,10.4
2022-11-20T03:00:36.046Z,8.6
2022-11-20T03:05:36.055Z,8.7
2022-11-20T03:10:36.033Z,8.7
2022-11-20T03:15:36.069Z,8.9
2022-11-20T03:20:36.038Z,10.4
2022-11-20T03:25:36.040Z,11.0
2022-11-20T03:30:36.027Z,10.9
2022-11-20T03:35:36.050Z,8.2
2022-11-20T03:40:36.026Z,8.2
2022-11-20T03:45:36.042Z,11.8
2022-11-20T03:50:36.040Z,14.7
2022-11-20T03:55:36.042Z,11.6
2022-11-20T04:00:36.024Z,13.8
2022-11-20T04:05:36.043Z,15.3
2022-11-20T04:10:36.038Z,15.3
2022-11-20T04:15:38.451Z,13.2
2022-11-20T04:20:36.039Z,12.6
2022-11-20T04:25:36.039Z,16.8
2022-11-20T04:30:36.040Z,14.9
2022-11-20T04:35:36.053Z,17.9
2022-11-20T04:40:36.032Z,17.9
2022-11-20T04:45:36.057Z,19.5
2022-11-20T04:50:36.050Z,17.2
2022-11-20T04:55:36.047Z,20.2
2022-11-20T05:00:36.052Z,16.9
2022-11-20T05:05:36.045Z,17.7
2022-11-20T05:10:36.038Z,17.7
2022-11-20T05:15:36.048Z,22.4
2022-11-20T05:20:36.045Z,18.7
2022-11-20T05:25:36.044Z,16.3
2022-11-20T05:30:36.046Z,20.5
2022-11-20T05:35:36.068Z,14.8
2022-11-20T05:40:36.044Z,14.8
2022-11-20T05:45:36.056Z,20.6
2022-11-20T05:50:36.094Z,16.2
2022-11-20T05:55:36.077Z,15.6
2022-11-20T06:00:36.079Z,20.3
2022-11-20T06:05:36.029Z,14.8
2022-11-20T06:10:36.059Z,14.8
2022-11-20T06:15:36.057Z,14.7
2022-11-20T06:20:41.845Z,15.6
2022-11-20T06:25:36.044Z,12.7
2022-11-20T06:30:36.049Z,13.9
2022-11-20T06:35:36.045Z,10.6
2022-11-20T06:40:36.052Z,10.6
2022-11-20T06:45:36.047Z,13.8
2022-11-20T06:50:36.050Z,13.1
2022-11-20T06:55:36.109Z,11.8
2022-11-20T07:00:36.153Z,15.6
2022-11-20T07:05:36.070Z,12.0
2022-11-20T07:10:36.073Z,12.0
2022-11-20T07:15:36.066Z,10.7
2022-11-20T07:20:36.078Z,11.8
2022-11-20T07:25:36.064Z,11.1
2022-11-20T07:30:36.075Z,11.1
2022-11-20T07:35:36.076Z,10.4
2022-11-20T07:40:36.066Z,10.4
2022-11-20T07:45:36.069Z,7.8
2022-11-20T07:50:36.072Z,6.8
2022-11-20T07:55:36.054Z,5.8
2022-11-20T08:00:36.151Z,5.7
2022-11-20T08:05:36.074Z,6.5
2022-11-20T08:10:36.090Z,6.5
2022-11-20T08:15:36.060Z,7.3
2022-11-20T08:20:36.080Z,7.2
2022-11-20T08:25:36.057Z,6.1
2022-11-20T08:30:36.080Z,7.1
2022-11-20T08:35:36.087Z,8.2
2022-11-20T08:40:36.081Z,8.2
2022-11-20T08:45:36.076Z,8.2
2022-11-20T08:50:36.093Z,11.4
2022-11-20T08:55:36.071Z,11.3
2022-11-20T09:00:36.164Z,8.7
2022-11-20T09:05:36.092Z,10.6
2022-11-20T09:10:36.080Z,10.6
2022-11-20T09:15:36.103Z,12.7
2022-11-20T09:20:36.142Z,11.8
2022-11-20T09:25:36.087Z,11.3
2022-11-20T09:30:36.095Z,10.8
2022-11-20T09:35:36.117Z,12.5
2022-11-20T09:40:36.087Z,12.5
2022-11-20T09:45:36.096Z,12.2
2022-11-20T09:50:36.093Z,12.0
2022-11-20T09:55:36.088Z,8.8
2022-11-20T10:00:36.178Z,6.9
2022-11-20T10:05:36.122Z,6.6
2022-11-20T10:10:39.767Z,6.6
2022-11-20T10:15:36.098Z,9.4
2022-11-20T10:20:36.113Z,6.4
2022-11-20T10:25:36.109Z,7.0
2022-11-20T10:30:36.113Z,5.8
2022-11-20T10:35:36.186Z,8.5
2022-11-20T10:40:36.111Z,8.5
2022-11-20T10:45:36.116Z,7.6
2022-11-20T10:50:36.226Z,8.9
2022-11-20T10:55:36.131Z,5.4
2022-11-20T11:00:36.233Z,7.7
2022-11-20T11:05:36.179Z,7.4
2022-11-20T11:10:36.182Z,7.4
2022-11-20T11:15:36.144Z,8.1
2022-11-20T11:20:36.130Z,10.6
2022-11-20T11:25:36.155Z,5.9
2022-11-20T11:30:36.126Z,11.1
2022-11-20T11:35:36.200Z,6.7
2022-11-20T11:40:36.200Z,6.7
2022-11-20T11:45:36.148Z,5.4
2022-11-20T11:50:36.123Z,9.5
2022-11-20T11:55:36.141Z,11.2
2022-11-20T12:00:36.140Z,10.9
2022-11-20T12:05:36.144Z,13.1
2022-11-20T12:10:36.157Z,13.1
2022-11-20T12:15:36.142Z,13.3
2022-11-20T12:20:36.136Z,9.5
2022-11-20T12:25:36.173Z,13.1
2022-11-20T12:30:36.144Z,17.2
2022-11-20T12:35:36.155Z,9.4
2022-11-20T12:40:36.164Z,9.4
2022-11-20T12:45:36.149Z,12.0
2022-11-20T12:50:47.568Z,8.6
2022-11-20T12:55:36.148Z,11.6
2022-11-20T13:00:36.150Z,13.0
2022-11-20T13:05:36.123Z,13.2
2022-11-20T13:10:36.165Z,13.2
2022-11-20T13:15:36.149Z,11.5
2022-11-20T13:20:36.155Z,15.8
2022-11-20T13:25:36.156Z,10.5
2022-11-20T13:30:36.161Z,15.9
2022-11-20T13:35:36.150Z,8.7
2022-11-20T13:40:36.161Z,8.7
2022-11-20T13:45:36.140Z,12.9
2022-11-20T13:50:36.163Z,13.2
2022-11-20T13:55:36.155Z,8.8
2022-11-20T14:00:36.194Z,9.1
2022-11-20T14:05:36.147Z,8.6
2022-11-20T14:10:36.164Z,8.6
2022-11-20T14:15:40.424Z,13.7
2022-11-20T14:20:36.168Z,10.0
2022-11-20T14:25:36.161Z,14.2
2022-11-20T14:30:36.172Z,8.4
2022-11-20T14:35:36.147Z,10.2
2022-11-20T14:40:36.161Z,10.2
2022-11-20T14:45:36.148Z,13.6
2022-11-20T14:50:36.160Z,15.9
2022-11-20T14:55:36.166Z,10.7
2022-11-20T15:00:36.232Z,10.8
2022-11-20T15:05:36.153Z,11.1
2022-11-20T15:10:36.174Z,11.1
2022-11-20T15:15:36.151Z,14.1
2022-11-20T15:20:36.169Z,13.6
2022-11-20T15:25:36.167Z,14.9
2022-11-20T15:30:36.180Z,10.8
2022-11-20T15:35:36.182Z,11.8
2022-11-20T15:40:36.188Z,11.8
2022-11-20T15:45:36.158Z,15.0
2022-11-20T15:50:36.165Z,13.3
2022-11-20T15:55:36.168Z,10.4
2022-11-20T16:00:36.226Z,11.3
2022-11-20T16:05:36.208Z,13.0
2022-11-20T16:10:36.227Z,13.0
2022-11-20T16:15:36.162Z,10.1
2022-11-20T16:20:36.174Z,13.3
2022-11-20T16:25:36.167Z,18.7
2022-11-20T16:30:36.239Z,16.8
2022-11-20T16:35:36.186Z,16.3
2022-11-20T16:40:36.175Z,16.3
2022-11-20T16:45:36.163Z,18.2
2022-11-20T16:50:36.145Z,17.2
2022-11-20T16:55:36.153Z,12.4
2022-11-20T17:00:36.172Z,11.0
2022-11-20T17:05:36.177Z,14.6
2022-11-20T17:10:36.199Z,14.6
2022-11-20T17:15:36.204Z,14.5
2022-11-20T17:20:36.176Z,17.6
2022-11-20T17:25:36.180Z,11.2
2022-11-20T17:30:36.223Z,5.7
2022-11-20T17:35:36.195Z,5.2
2022-11-20T17:40:36.184Z,5.2
2022-11-20T17:45:36.177Z,5.4
2022-11-20T17:50:36.146Z,7.1
2022-11-20T17:55:36.202Z,8.2
2022-11-20T18:00:36.168Z,5.9
2022-11-20T18:05:36.204Z,4.7
2022-11-20T18:10:36.166Z,4.7
2022-11-20T18:15:36.196Z,8.2
2022-11-20T18:20:39.854Z,7.1
2022-11-20T18:25:36.231Z,9.9
2022-11-20T18:30:36.232Z,5.9
2022-11-20T18:35:36.192Z,6.1
2022-11-20T18:40:36.212Z,6.1
2022-11-20T18:45:36.160Z,5.5
2022-11-20T18:50:36.176Z,6.6
2022-11-20T18:55:36.182Z,4.1
2022-11-20T19:00:36.191Z,2.7
2022-11-20T19:05:36.235Z,4.1
2022-11-20T19:10:36.172Z,4.1
2022-11-20T19:15:36.162Z,3.8
2022-11-20T19:20:36.189Z,2.4
2022-11-20T19:25:38.322Z,3.8
2022-11-20T19:30:36.176Z,3.1
2022-11-20T19:35:36.272Z,4.3
2022-11-20T19:40:36.168Z,4.3
2022-11-20T19:45:36.181Z,3.2
2022-11-20T19:50:36.231Z,3.0
2022-11-20T19:55:36.176Z,3.1
2022-11-20T20:00:36.195Z,3.2
2022-11-20T20:05:36.182Z,5.0
2022-11-20T20:10:36.193Z,5.0
2022-11-20T20:15:36.168Z,3.3
2022-11-20T20:20:36.188Z,7.5
2022-11-20T20:25:36.202Z,7.8
2022-11-20T20:30:36.182Z,6.4
2022-11-20T20:35:36.194Z,7.9
2022-11-20T20:40:36.176Z,7.9
2022-11-20T20:45:36.217Z,8.5
2022-11-20T20:50:36.190Z,5.4
2022-11-20T20:55:36.186Z,4.4
2022-11-20T21:00:36.190Z,2.7
2022-11-20T21:05:36.196Z,2.8
2022-11-20T21:10:36.194Z,2.8
2022-11-20T21:15:36.191Z,4.7
2022-11-20T21:20:36.190Z,6.9
2022-11-20T21:25:36.182Z,3.9
2022-11-20T21:30:36.199Z,2.8
2022-11-20T21:35:36.171Z,3.5
2022-11-20T21:40:36.197Z,3.5
2022-11-20T21:45:36.245Z,3.5
2022-11-20T21:50:36.177Z,6.0
2022-11-20T21:55:36.231Z,6.6
2022-11-20T22:00:36.197Z,5.1
2022-11-20T22:05:36.197Z,6.6
2022-11-20T22:10:36.180Z,6.6
2022-11-20T22:15:59.263Z,7.6
2022-11-20T22:20:36.185Z,6.5
2022-11-20T22:25:36.202Z,6.8
2022-11-20T22:30:36.181Z,4.3
2022-11-20T22:35:36.225Z,3.1
2022-11-20T22:40:36.193Z,3.1
2022-11-20T22:45:36.197Z,3.0
2022-11-20T22:50:36.178Z,6.7
2022-11-20T22:55:36.197Z,4.7
2022-11-20T23:00:36.203Z,4.7
2022-11-20T23:05:36.191Z,6.1
2022-11-20T23:10:36.198Z,6.1
2022-11-20T23:15:36.194Z,5.5
2022-11-20T23:20:36.183Z,5.0
2022-11-20T23:25:36.187Z,5.6
2022-11-20T23:30:36.206Z,6.9
2022-11-20T23:35:36.191Z,8.4
2022-11-20T23:40:40.134Z,8.4
2022-11-20T23:45:36.192Z,9.7
2022-11-20T23:50:36.199Z,6.3
2022-11-20T23:55:36.192Z,6.2
